sensor_id;sensor_type;location;lat;lon;timestamp;temperature;humidity
68681;DHT22;55836;49.858;6.756;2022-07-18T00:01:39;17.20;66.50
68681;DHT22;55836;49.858;6.756;2022-07-18T00:04:05;17.20;66.60
68681;DHT22;55836;49.858;6.756;2022-07-18T00:06:30;17.20;66.60
68681;DHT22;55836;49.858;6.756;2022-07-18T00:08:56;17.10;66.70
68681;DHT22;55836;49.858;6.756;2022-07-18T00:11:22;17.10;67.10
68681;DHT22;55836;49.858;6.756;2022-07-18T00:13:48;17.00;67.10
68681;DHT22;55836;49.858;6.756;2022-07-18T00:16:16;16.90;67.90
68681;DHT22;55836;49.858;6.756;2022-07-18T00:18:42;16.80;68.00
68681;DHT22;55836;49.858;6.756;2022-07-18T00:21:08;16.80;68.00
68681;DHT22;55836;49.858;6.756;2022-07-18T00:23:34;16.70;68.40
68681;DHT22;55836;49.858;6.756;2022-07-18T00:26:00;16.70;68.80
68681;DHT22;55836;49.858;6.756;2022-07-18T00:28:26;16.70;68.60
68681;DHT22;55836;49.858;6.756;2022-07-18T00:30:51;16.60;69.20
68681;DHT22;55836;49.858;6.756;2022-07-18T00:33:17;16.60;69.60
68681;DHT22;55836;49.858;6.756;2022-07-18T00:35:43;16.60;69.40
68681;DHT22;55836;49.858;6.756;2022-07-18T00:38:08;16.40;70.00
68681;DHT22;55836;49.858;6.756;2022-07-18T00:40:34;16.40;69.80
68681;DHT22;55836;49.858;6.756;2022-07-18T00:43:00;16.40;69.60
68681;DHT22;55836;49.858;6.756;2022-07-18T00:45:26;16.40;69.60
68681;DHT22;55836;49.858;6.756;2022-07-18T00:47:52;16.30;69.60
68681;DHT22;55836;49.858;6.756;2022-07-18T00:50:22;16.30;69.90
68681;DHT22;55836;49.858;6.756;2022-07-18T00:52:48;16.20;71.00
68681;DHT22;55836;49.858;6.756;2022-07-18T00:55:14;16.20;71.60
68681;DHT22;55836;49.858;6.756;2022-07-18T00:57:41;16.20;71.10
68681;DHT22;55836;49.858;6.756;2022-07-18T01:00:10;16.10;71.10
68681;DHT22;55836;49.858;6.756;2022-07-18T01:02:55;16.10;71.10
68681;DHT22;55836;49.858;6.756;2022-07-18T01:05:20;16.10;71.50
68681;DHT22;55836;49.858;6.756;2022-07-18T01:07:46;16.00;71.90
68681;DHT22;55836;49.858;6.756;2022-07-18T01:10:12;15.90;72.40
68681;DHT22;55836;49.858;6.756;2022-07-18T01:12:37;15.90;72.40
68681;DHT22;55836;49.858;6.756;2022-07-18T01:15:05;15.90;72.20
68681;DHT22;55836;49.858;6.756;2022-07-18T01:17:31;15.90;72.70
68681;DHT22;55836;49.858;6.756;2022-07-18T01:19:57;15.80;73.40
68681;DHT22;55836;49.858;6.756;2022-07-18T01:22:22;15.80;73.10
68681;DHT22;55836;49.858;6.756;2022-07-18T01:24:49;15.90;72.70
68681;DHT22;55836;49.858;6.756;2022-07-18T01:27:19;15.80;73.00
68681;DHT22;55836;49.858;6.756;2022-07-18T01:29:47;15.80;73.10
68681;DHT22;55836;49.858;6.756;2022-07-18T01:32:14;15.70;73.30
68681;DHT22;55836;49.858;6.756;2022-07-18T01:34:40;15.70;73.40
68681;DHT22;55836;49.858;6.756;2022-07-18T01:37:07;15.70;73.20
68681;DHT22;55836;49.858;6.756;2022-07-18T01:39:33;15.70;73.40
68681;DHT22;55836;49.858;6.756;2022-07-18T01:42:02;15.60;73.90
68681;DHT22;55836;49.858;6.756;2022-07-18T01:44:29;15.60;74.50
68681;DHT22;55836;49.858;6.756;2022-07-18T01:46:55;15.60;74.10
68681;DHT22;55836;49.858;6.756;2022-07-18T01:49:22;15.60;74.20
68681;DHT22;55836;49.858;6.756;2022-07-18T01:51:50;15.50;74.60
68681;DHT22;55836;49.858;6.756;2022-07-18T01:54:19;15.40;74.70
68681;DHT22;55836;49.858;6.756;2022-07-18T01:56:46;15.40;75.30
68681;DHT22;55836;49.858;6.756;2022-07-18T01:59:11;15.30;75.60
68681;DHT22;55836;49.858;6.756;2022-07-18T02:01:37;15.20;75.70
68681;DHT22;55836;49.858;6.756;2022-07-18T02:04:03;15.20;75.60
68681;DHT22;55836;49.858;6.756;2022-07-18T02:06:29;15.30;75.50
68681;DHT22;55836;49.858;6.756;2022-07-18T02:08:54;15.30;75.60
68681;DHT22;55836;49.858;6.756;2022-07-18T02:11:20;15.20;75.80
68681;DHT22;55836;49.858;6.756;2022-07-18T02:13:46;15.30;75.80
68681;DHT22;55836;49.858;6.756;2022-07-18T02:16:11;15.30;75.90
68681;DHT22;55836;49.858;6.756;2022-07-18T02:18:37;15.20;76.10
68681;DHT22;55836;49.858;6.756;2022-07-18T02:21:03;15.10;76.00
68681;DHT22;55836;49.858;6.756;2022-07-18T02:23:29;15.10;76.40
68681;DHT22;55836;49.858;6.756;2022-07-18T02:25:55;15.00;76.90
68681;DHT22;55836;49.858;6.756;2022-07-18T02:28:21;15.00;76.70
68681;DHT22;55836;49.858;6.756;2022-07-18T02:30:47;15.00;76.70
68681;DHT22;55836;49.858;6.756;2022-07-18T02:33:14;15.00;77.00
68681;DHT22;55836;49.858;6.756;2022-07-18T02:35:40;15.00;76.90
68681;DHT22;55836;49.858;6.756;2022-07-18T02:38:06;15.00;77.00
68681;DHT22;55836;49.858;6.756;2022-07-18T02:40:32;14.90;77.30
68681;DHT22;55836;49.858;6.756;2022-07-18T02:42:58;14.90;77.40
68681;DHT22;55836;49.858;6.756;2022-07-18T02:45:24;14.80;77.70
68681;DHT22;55836;49.858;6.756;2022-07-18T02:47:50;14.80;78.50
68681;DHT22;55836;49.858;6.756;2022-07-18T02:50:15;14.80;78.60
68681;DHT22;55836;49.858;6.756;2022-07-18T02:52:42;14.70;78.80
68681;DHT22;55836;49.858;6.756;2022-07-18T02:55:09;14.70;79.00
68681;DHT22;55836;49.858;6.756;2022-07-18T02:57:35;14.60;79.40
68681;DHT22;55836;49.858;6.756;2022-07-18T03:00:03;14.50;79.90
68681;DHT22;55836;49.858;6.756;2022-07-18T03:02:29;14.40;80.60
68681;DHT22;55836;49.858;6.756;2022-07-18T03:04:54;14.40;80.80
68681;DHT22;55836;49.858;6.756;2022-07-18T03:07:20;14.30;81.20
68681;DHT22;55836;49.858;6.756;2022-07-18T03:09:46;14.30;81.50
68681;DHT22;55836;49.858;6.756;2022-07-18T03:12:11;14.30;81.50
68681;DHT22;55836;49.858;6.756;2022-07-18T03:14:37;14.20;81.80
68681;DHT22;55836;49.858;6.756;2022-07-18T03:17:03;14.30;82.20
68681;DHT22;55836;49.858;6.756;2022-07-18T03:19:28;14.20;82.40
68681;DHT22;55836;49.858;6.756;2022-07-18T03:21:54;14.20;82.40
68681;DHT22;55836;49.858;6.756;2022-07-18T03:24:20;14.10;82.70
68681;DHT22;55836;49.858;6.756;2022-07-18T03:26:46;14.10;84.00
68681;DHT22;55836;49.858;6.756;2022-07-18T03:29:12;14.00;84.90
68681;DHT22;55836;49.858;6.756;2022-07-18T03:31:38;14.00;84.60
68681;DHT22;55836;49.858;6.756;2022-07-18T03:34:04;14.10;83.70
68681;DHT22;55836;49.858;6.756;2022-07-18T03:36:30;14.10;83.50
68681;DHT22;55836;49.858;6.756;2022-07-18T03:38:56;14.20;83.50
68681;DHT22;55836;49.858;6.756;2022-07-18T03:41:21;14.20;83.30
68681;DHT22;55836;49.858;6.756;2022-07-18T03:43:47;14.20;83.70
68681;DHT22;55836;49.858;6.756;2022-07-18T03:46:13;14.10;84.40
68681;DHT22;55836;49.858;6.756;2022-07-18T03:48:38;14.00;84.90
68681;DHT22;55836;49.858;6.756;2022-07-18T03:51:04;14.00;85.00
68681;DHT22;55836;49.858;6.756;2022-07-18T03:53:31;14.00;85.20
68681;DHT22;55836;49.858;6.756;2022-07-18T03:55:57;14.00;85.40
68681;DHT22;55836;49.858;6.756;2022-07-18T03:58:23;14.00;86.20
68681;DHT22;55836;49.858;6.756;2022-07-18T04:00:49;14.00;85.50
68681;DHT22;55836;49.858;6.756;2022-07-18T04:03:15;14.00;85.40
68681;DHT22;55836;49.858;6.756;2022-07-18T04:05:41;14.10;85.10
68681;DHT22;55836;49.858;6.756;2022-07-18T04:08:07;14.00;85.10
68681;DHT22;55836;49.858;6.756;2022-07-18T04:10:33;14.00;85.10
68681;DHT22;55836;49.858;6.756;2022-07-18T04:12:58;14.00;85.50
68681;DHT22;55836;49.858;6.756;2022-07-18T04:15:25;14.00;85.70
68681;DHT22;55836;49.858;6.756;2022-07-18T04:17:52;14.10;85.50
68681;DHT22;55836;49.858;6.756;2022-07-18T04:20:19;14.10;85.50
68681;DHT22;55836;49.858;6.756;2022-07-18T04:22:57;14.10;85.70
68681;DHT22;55836;49.858;6.756;2022-07-18T04:25:25;14.20;85.40
68681;DHT22;55836;49.858;6.756;2022-07-18T04:27:52;14.30;85.10
68681;DHT22;55836;49.858;6.756;2022-07-18T04:30:21;14.40;84.90
68681;DHT22;55836;49.858;6.756;2022-07-18T04:32:47;14.40;85.10
68681;DHT22;55836;49.858;6.756;2022-07-18T04:35:13;14.50;84.80
68681;DHT22;55836;49.858;6.756;2022-07-18T04:37:41;14.50;84.90
68681;DHT22;55836;49.858;6.756;2022-07-18T04:40:09;14.60;84.70
68681;DHT22;55836;49.858;6.756;2022-07-18T04:42:35;14.90;84.70
68681;DHT22;55836;49.858;6.756;2022-07-18T04:45:02;15.30;83.10
68681;DHT22;55836;49.858;6.756;2022-07-18T04:47:28;15.50;82.10
68681;DHT22;55836;49.858;6.756;2022-07-18T04:49:54;15.70;80.70
68681;DHT22;55836;49.858;6.756;2022-07-18T04:52:20;16.80;78.10
68681;DHT22;55836;49.858;6.756;2022-07-18T04:54:46;18.50;72.80
68681;DHT22;55836;49.858;6.756;2022-07-18T04:57:12;18.70;71.60
68681;DHT22;55836;49.858;6.756;2022-07-18T04:59:41;18.40;72.80
68681;DHT22;55836;49.858;6.756;2022-07-18T05:02:07;19.50;70.80
68681;DHT22;55836;49.858;6.756;2022-07-18T05:04:33;19.80;69.50
68681;DHT22;55836;49.858;6.756;2022-07-18T05:06:59;19.60;69.40
68681;DHT22;55836;49.858;6.756;2022-07-18T05:09:26;19.80;68.00
68681;DHT22;55836;49.858;6.756;2022-07-18T05:11:52;20.80;64.00
68681;DHT22;55836;49.858;6.756;2022-07-18T05:14:19;21.50;61.90
68681;DHT22;55836;49.858;6.756;2022-07-18T05:16:46;21.60;61.40
68681;DHT22;55836;49.858;6.756;2022-07-18T05:19:12;21.90;61.20
68681;DHT22;55836;49.858;6.756;2022-07-18T05:21:38;22.50;59.90
68681;DHT22;55836;49.858;6.756;2022-07-18T05:24:04;22.50;59.80
68681;DHT22;55836;49.858;6.756;2022-07-18T05:26:29;22.30;59.20
68681;DHT22;55836;49.858;6.756;2022-07-18T05:28:55;21.80;60.70
68681;DHT22;55836;49.858;6.756;2022-07-18T05:31:21;22.30;59.90
68681;DHT22;55836;49.858;6.756;2022-07-18T05:33:46;22.40;59.90
68681;DHT22;55836;49.858;6.756;2022-07-18T05:36:12;22.30;60.50
68681;DHT22;55836;49.858;6.756;2022-07-18T05:38:38;22.40;60.10
68681;DHT22;55836;49.858;6.756;2022-07-18T05:41:03;22.60;59.70
68681;DHT22;55836;49.858;6.756;2022-07-18T05:43:29;22.70;59.50
68681;DHT22;55836;49.858;6.756;2022-07-18T05:45:55;23.60;57.60
68681;DHT22;55836;49.858;6.756;2022-07-18T05:48:20;23.80;56.60
68681;DHT22;55836;49.858;6.756;2022-07-18T05:50:46;23.10;58.00
68681;DHT22;55836;49.858;6.756;2022-07-18T05:53:12;22.30;59.90
68681;DHT22;55836;49.858;6.756;2022-07-18T05:55:38;22.20;60.90
68681;DHT22;55836;49.858;6.756;2022-07-18T05:58:04;22.80;60.00
68681;DHT22;55836;49.858;6.756;2022-07-18T06:00:29;24.30;57.00
68681;DHT22;55836;49.858;6.756;2022-07-18T06:02:56;25.90;53.50
68681;DHT22;55836;49.858;6.756;2022-07-18T06:05:21;26.10;52.60
68681;DHT22;55836;49.858;6.756;2022-07-18T06:07:47;26.40;51.80
68681;DHT22;55836;49.858;6.756;2022-07-18T06:10:13;26.80;51.50
68681;DHT22;55836;49.858;6.756;2022-07-18T06:12:39;26.50;52.30
68681;DHT22;55836;49.858;6.756;2022-07-18T06:15:05;25.50;52.90
68681;DHT22;55836;49.858;6.756;2022-07-18T06:17:32;24.50;55.30
68681;DHT22;55836;49.858;6.756;2022-07-18T06:19:58;23.30;57.80
68681;DHT22;55836;49.858;6.756;2022-07-18T06:22:24;22.80;59.10
68681;DHT22;55836;49.858;6.756;2022-07-18T06:24:50;22.70;58.90
68681;DHT22;55836;49.858;6.756;2022-07-18T06:27:16;22.40;59.90
68681;DHT22;55836;49.858;6.756;2022-07-18T06:29:42;22.20;60.30
68681;DHT22;55836;49.858;6.756;2022-07-18T06:32:08;22.40;60.10
68681;DHT22;55836;49.858;6.756;2022-07-18T06:34:33;22.30;60.50
68681;DHT22;55836;49.858;6.756;2022-07-18T06:36:59;22.60;60.00
68681;DHT22;55836;49.858;6.756;2022-07-18T06:39:25;22.60;60.00
68681;DHT22;55836;49.858;6.756;2022-07-18T06:41:50;22.50;60.30
68681;DHT22;55836;49.858;6.756;2022-07-18T06:44:16;22.70;59.70
68681;DHT22;55836;49.858;6.756;2022-07-18T06:46:42;22.60;60.10
68681;DHT22;55836;49.858;6.756;2022-07-18T06:49:08;22.70;60.60
68681;DHT22;55836;49.858;6.756;2022-07-18T06:51:34;23.40;59.40
68681;DHT22;55836;49.858;6.756;2022-07-18T06:54:00;24.00;58.60
68681;DHT22;55836;49.858;6.756;2022-07-18T06:56:25;24.30;57.80
68681;DHT22;55836;49.858;6.756;2022-07-18T06:58:52;24.20;57.20
68681;DHT22;55836;49.858;6.756;2022-07-18T07:01:19;24.00;57.80
68681;DHT22;55836;49.858;6.756;2022-07-18T07:03:45;23.50;58.60
68681;DHT22;55836;49.858;6.756;2022-07-18T07:06:12;23.80;59.00
68681;DHT22;55836;49.858;6.756;2022-07-18T07:08:38;24.40;57.40
68681;DHT22;55836;49.858;6.756;2022-07-18T07:11:04;24.50;57.40
68681;DHT22;55836;49.858;6.756;2022-07-18T07:13:30;24.60;56.90
68681;DHT22;55836;49.858;6.756;2022-07-18T07:15:55;25.00;57.00
68681;DHT22;55836;49.858;6.756;2022-07-18T07:18:21;25.40;56.20
68681;DHT22;55836;49.858;6.756;2022-07-18T07:20:47;25.50;55.50
68681;DHT22;55836;49.858;6.756;2022-07-18T07:23:13;25.30;56.00
68681;DHT22;55836;49.858;6.756;2022-07-18T07:25:39;25.50;56.00
68681;DHT22;55836;49.858;6.756;2022-07-18T07:28:05;25.60;56.40
68681;DHT22;55836;49.858;6.756;2022-07-18T07:30:32;25.70;54.80
68681;DHT22;55836;49.858;6.756;2022-07-18T07:32:59;25.40;55.50
68681;DHT22;55836;49.858;6.756;2022-07-18T07:35:25;25.60;55.80
68681;DHT22;55836;49.858;6.756;2022-07-18T07:37:55;25.80;56.00
68681;DHT22;55836;49.858;6.756;2022-07-18T07:40:22;25.80;55.60
68681;DHT22;55836;49.858;6.756;2022-07-18T07:42:48;25.90;55.60
68681;DHT22;55836;49.858;6.756;2022-07-18T07:45:13;25.80;56.20
68681;DHT22;55836;49.858;6.756;2022-07-18T07:47:40;26.00;55.50
68681;DHT22;55836;49.858;6.756;2022-07-18T07:50:07;26.00;55.30
68681;DHT22;55836;49.858;6.756;2022-07-18T07:52:33;26.20;55.00
68681;DHT22;55836;49.858;6.756;2022-07-18T07:54:59;26.30;54.50
68681;DHT22;55836;49.858;6.756;2022-07-18T07:57:24;25.80;55.00
68681;DHT22;55836;49.858;6.756;2022-07-18T07:59:51;26.00;55.70
68681;DHT22;55836;49.858;6.756;2022-07-18T08:02:18;25.90;54.20
68681;DHT22;55836;49.858;6.756;2022-07-18T08:04:44;25.60;55.30
68681;DHT22;55836;49.858;6.756;2022-07-18T08:07:10;26.00;55.60
68681;DHT22;55836;49.858;6.756;2022-07-18T08:09:37;26.10;54.40
68681;DHT22;55836;49.858;6.756;2022-07-18T08:12:03;26.20;54.90
68681;DHT22;55836;49.858;6.756;2022-07-18T08:14:29;26.20;54.10
68681;DHT22;55836;49.858;6.756;2022-07-18T08:16:55;26.30;53.90
68681;DHT22;55836;49.858;6.756;2022-07-18T08:19:20;26.10;53.90
68681;DHT22;55836;49.858;6.756;2022-07-18T08:21:46;26.10;54.40
68681;DHT22;55836;49.858;6.756;2022-07-18T08:24:12;26.10;53.40
68681;DHT22;55836;49.858;6.756;2022-07-18T08:26:37;26.30;53.00
68681;DHT22;55836;49.858;6.756;2022-07-18T08:29:05;26.40;52.70
68681;DHT22;55836;49.858;6.756;2022-07-18T08:31:31;26.20;52.40
68681;DHT22;55836;49.858;6.756;2022-07-18T08:33:57;26.30;52.20
68681;DHT22;55836;49.858;6.756;2022-07-18T08:36:23;26.30;51.40
68681;DHT22;55836;49.858;6.756;2022-07-18T08:38:50;26.60;52.20
68681;DHT22;55836;49.858;6.756;2022-07-18T08:41:17;26.90;51.10
68681;DHT22;55836;49.858;6.756;2022-07-18T08:43:45;27.10;49.40
68681;DHT22;55836;49.858;6.756;2022-07-18T08:46:12;27.30;48.70
68681;DHT22;55836;49.858;6.756;2022-07-18T08:48:39;27.30;49.50
68681;DHT22;55836;49.858;6.756;2022-07-18T08:51:08;27.30;47.50
68681;DHT22;55836;49.858;6.756;2022-07-18T08:53:35;27.30;47.80
68681;DHT22;55836;49.858;6.756;2022-07-18T08:56:03;27.40;48.30
68681;DHT22;55836;49.858;6.756;2022-07-18T08:58:29;27.60;48.70
68681;DHT22;55836;49.858;6.756;2022-07-18T09:00:54;27.60;47.10
68681;DHT22;55836;49.858;6.756;2022-07-18T09:03:23;27.70;47.90
68681;DHT22;55836;49.858;6.756;2022-07-18T09:06:03;27.70;47.90
68681;DHT22;55836;49.858;6.756;2022-07-18T09:08:29;27.60;47.20
68681;DHT22;55836;49.858;6.756;2022-07-18T09:10:58;27.40;47.30
68681;DHT22;55836;49.858;6.756;2022-07-18T09:16:00;27.70;45.70
68681;DHT22;55836;49.858;6.756;2022-07-18T09:18:32;27.60;45.40
68681;DHT22;55836;49.858;6.756;2022-07-18T09:21:03;27.80;47.00
68681;DHT22;55836;49.858;6.756;2022-07-18T09:23:35;28.00;46.30
68681;DHT22;55836;49.858;6.756;2022-07-18T09:26:01;28.00;44.30
68681;DHT22;55836;49.858;6.756;2022-07-18T09:28:28;28.00;43.80
68681;DHT22;55836;49.858;6.756;2022-07-18T09:30:56;28.00;44.20
68681;DHT22;55836;49.858;6.756;2022-07-18T09:33:23;28.10;43.10
68681;DHT22;55836;49.858;6.756;2022-07-18T09:35:51;28.00;42.80
68681;DHT22;55836;49.858;6.756;2022-07-18T09:38:19;28.10;42.40
68681;DHT22;55836;49.858;6.756;2022-07-18T09:40:51;28.30;41.20
68681;DHT22;55836;49.858;6.756;2022-07-18T09:43:22;28.40;41.00
68681;DHT22;55836;49.858;6.756;2022-07-18T09:45:53;28.30;40.00
68681;DHT22;55836;49.858;6.756;2022-07-18T09:48:24;28.20;40.00
68681;DHT22;55836;49.858;6.756;2022-07-18T09:51:04;28.60;39.60
68681;DHT22;55836;49.858;6.756;2022-07-18T09:53:40;28.90;39.70
68681;DHT22;55836;49.858;6.756;2022-07-18T09:56:11;29.10;39.60
68681;DHT22;55836;49.858;6.756;2022-07-18T09:58:42;29.00;39.10
68681;DHT22;55836;49.858;6.756;2022-07-18T10:01:14;28.80;39.40
68681;DHT22;55836;49.858;6.756;2022-07-18T10:03:40;29.10;40.20
68681;DHT22;55836;49.858;6.756;2022-07-18T10:06:06;29.20;39.20
68681;DHT22;55836;49.858;6.756;2022-07-18T10:08:33;29.20;38.40
68681;DHT22;55836;49.858;6.756;2022-07-18T10:11:00;29.10;38.40
68681;DHT22;55836;49.858;6.756;2022-07-18T10:13:28;28.90;39.10
68681;DHT22;55836;49.858;6.756;2022-07-18T10:15:55;29.00;38.90
68681;DHT22;55836;49.858;6.756;2022-07-18T10:18:24;29.00;38.60
68681;DHT22;55836;49.858;6.756;2022-07-18T10:21:08;28.90;39.20
68681;DHT22;55836;49.858;6.756;2022-07-18T10:26:19;29.40;40.70
68681;DHT22;55836;49.858;6.756;2022-07-18T10:36:31;29.80;39.80
68681;DHT22;55836;49.858;6.756;2022-07-18T10:39:04;30.20;38.90
68681;DHT22;55836;49.858;6.756;2022-07-18T10:41:31;29.80;39.00
68681;DHT22;55836;49.858;6.756;2022-07-18T10:43:57;29.70;39.30
68681;DHT22;55836;49.858;6.756;2022-07-18T10:46:23;29.90;39.70
68681;DHT22;55836;49.858;6.756;2022-07-18T10:48:49;30.00;40.20
68681;DHT22;55836;49.858;6.756;2022-07-18T10:51:16;30.00;39.70
68681;DHT22;55836;49.858;6.756;2022-07-18T10:58:58;30.50;39.40
68681;DHT22;55836;49.858;6.756;2022-07-18T11:01:25;30.50;39.10
68681;DHT22;55836;49.858;6.756;2022-07-18T11:06:54;30.30;39.00
68681;DHT22;55836;49.858;6.756;2022-07-18T11:09:38;30.30;38.60
68681;DHT22;55836;49.858;6.756;2022-07-18T11:17:57;30.50;39.90
68681;DHT22;55836;49.858;6.756;2022-07-18T11:22:59;30.60;38.40
68681;DHT22;55836;49.858;6.756;2022-07-18T11:25:27;30.60;38.90
68681;DHT22;55836;49.858;6.756;2022-07-18T11:27:53;30.70;38.90
68681;DHT22;55836;49.858;6.756;2022-07-18T11:30:21;31.10;39.30
68681;DHT22;55836;49.858;6.756;2022-07-18T11:32:47;31.30;38.50
68681;DHT22;55836;49.858;6.756;2022-07-18T11:35:13;31.50;38.30
68681;DHT22;55836;49.858;6.756;2022-07-18T11:37:46;31.20;38.20
68681;DHT22;55836;49.858;6.756;2022-07-18T11:40:13;31.30;39.50
68681;DHT22;55836;49.858;6.756;2022-07-18T11:42:40;31.30;39.20
68681;DHT22;55836;49.858;6.756;2022-07-18T11:45:08;31.40;38.20
68681;DHT22;55836;49.858;6.756;2022-07-18T11:47:46;30.90;38.60
68681;DHT22;55836;49.858;6.756;2022-07-18T11:50:13;30.90;38.80
68681;DHT22;55836;49.858;6.756;2022-07-18T11:52:39;30.90;38.70
68681;DHT22;55836;49.858;6.756;2022-07-18T11:55:05;31.00;38.80
68681;DHT22;55836;49.858;6.756;2022-07-18T11:57:32;31.00;38.70
68681;DHT22;55836;49.858;6.756;2022-07-18T12:00:00;31.40;38.70
68681;DHT22;55836;49.858;6.756;2022-07-18T12:03:04;31.40;39.00
68681;DHT22;55836;49.858;6.756;2022-07-18T12:05:39;31.60;39.70
68681;DHT22;55836;49.858;6.756;2022-07-18T12:11:13;31.70;38.00
68681;DHT22;55836;49.858;6.756;2022-07-18T12:16:33;32.20;39.00
68681;DHT22;55836;49.858;6.756;2022-07-18T12:19:05;32.30;38.60
68681;DHT22;55836;49.858;6.756;2022-07-18T12:24:41;32.70;38.60
68681;DHT22;55836;49.858;6.756;2022-07-18T12:35:27;33.00;38.30
68681;DHT22;55836;49.858;6.756;2022-07-18T12:38:02;32.70;36.80
68681;DHT22;55836;49.858;6.756;2022-07-18T12:40:53;32.90;37.80
68681;DHT22;55836;49.858;6.756;2022-07-18T12:45:48;33.30;37.10
68681;DHT22;55836;49.858;6.756;2022-07-18T12:48:14;32.90;36.70
68681;DHT22;55836;49.858;6.756;2022-07-18T12:50:41;32.80;37.60
68681;DHT22;55836;49.858;6.756;2022-07-18T12:53:08;32.90;37.20
68681;DHT22;55836;49.858;6.756;2022-07-18T12:55:34;33.10;37.90
68681;DHT22;55836;49.858;6.756;2022-07-18T12:58:01;33.40;37.10
68681;DHT22;55836;49.858;6.756;2022-07-18T13:00:28;33.40;36.40
68681;DHT22;55836;49.858;6.756;2022-07-18T13:02:55;33.20;36.40
68681;DHT22;55836;49.858;6.756;2022-07-18T13:05:27;33.00;37.60
68681;DHT22;55836;49.858;6.756;2022-07-18T13:07:53;33.10;36.80
68681;DHT22;55836;49.858;6.756;2022-07-18T13:10:19;32.90;37.30
68681;DHT22;55836;49.858;6.756;2022-07-18T13:12:45;33.30;37.60
68681;DHT22;55836;49.858;6.756;2022-07-18T13:15:10;33.30;38.30
68681;DHT22;55836;49.858;6.756;2022-07-18T13:17:36;33.40;36.80
68681;DHT22;55836;49.858;6.756;2022-07-18T13:20:02;33.30;37.70
68681;DHT22;55836;49.858;6.756;2022-07-18T13:22:29;33.80;36.80
68681;DHT22;55836;49.858;6.756;2022-07-18T13:24:56;33.50;36.40
68681;DHT22;55836;49.858;6.756;2022-07-18T13:27:22;33.30;37.90
68681;DHT22;55836;49.858;6.756;2022-07-18T13:29:48;33.60;37.00
68681;DHT22;55836;49.858;6.756;2022-07-18T13:32:14;33.50;36.40
68681;DHT22;55836;49.858;6.756;2022-07-18T13:34:40;33.30;36.40
68681;DHT22;55836;49.858;6.756;2022-07-18T13:37:06;33.30;37.30
68681;DHT22;55836;49.858;6.756;2022-07-18T13:39:31;33.40;37.10
68681;DHT22;55836;49.858;6.756;2022-07-18T13:41:57;33.70;37.20
68681;DHT22;55836;49.858;6.756;2022-07-18T13:44:23;33.70;35.90
68681;DHT22;55836;49.858;6.756;2022-07-18T13:46:48;33.70;37.30
68681;DHT22;55836;49.858;6.756;2022-07-18T13:49:14;33.90;36.90
68681;DHT22;55836;49.858;6.756;2022-07-18T13:51:41;34.00;36.60
68681;DHT22;55836;49.858;6.756;2022-07-18T13:54:07;34.30;35.30
68681;DHT22;55836;49.858;6.756;2022-07-18T13:56:33;33.80;35.10
68681;DHT22;55836;49.858;6.756;2022-07-18T13:58:59;33.90;35.50
68681;DHT22;55836;49.858;6.756;2022-07-18T14:01:25;33.60;35.60
68681;DHT22;55836;49.858;6.756;2022-07-18T14:03:51;33.60;36.40
68681;DHT22;55836;49.858;6.756;2022-07-18T14:06:17;33.50;35.80
68681;DHT22;55836;49.858;6.756;2022-07-18T14:08:42;33.50;35.70
68681;DHT22;55836;49.858;6.756;2022-07-18T14:11:08;33.60;35.50
68681;DHT22;55836;49.858;6.756;2022-07-18T14:13:34;33.60;35.40
68681;DHT22;55836;49.858;6.756;2022-07-18T14:15:59;33.50;35.70
68681;DHT22;55836;49.858;6.756;2022-07-18T14:18:25;33.60;35.50
68681;DHT22;55836;49.858;6.756;2022-07-18T14:20:51;33.70;36.60
68681;DHT22;55836;49.858;6.756;2022-07-18T14:23:16;34.20;35.80
68681;DHT22;55836;49.858;6.756;2022-07-18T14:25:42;34.60;36.60
68681;DHT22;55836;49.858;6.756;2022-07-18T14:28:08;34.90;34.30
68681;DHT22;55836;49.858;6.756;2022-07-18T14:30:34;34.70;34.20
68681;DHT22;55836;49.858;6.756;2022-07-18T14:32:59;34.50;34.80
68681;DHT22;55836;49.858;6.756;2022-07-18T14:35:25;34.40;34.50
68681;DHT22;55836;49.858;6.756;2022-07-18T14:37:51;34.20;34.20
68681;DHT22;55836;49.858;6.756;2022-07-18T14:40:16;34.30;34.80
68681;DHT22;55836;49.858;6.756;2022-07-18T14:42:42;34.60;34.30
68681;DHT22;55836;49.858;6.756;2022-07-18T14:45:08;35.00;34.10
68681;DHT22;55836;49.858;6.756;2022-07-18T14:47:35;35.30;33.50
68681;DHT22;55836;49.858;6.756;2022-07-18T14:50:03;35.40;34.00
68681;DHT22;55836;49.858;6.756;2022-07-18T14:52:29;35.40;33.90
68681;DHT22;55836;49.858;6.756;2022-07-18T14:54:55;35.40;34.70
68681;DHT22;55836;49.858;6.756;2022-07-18T14:57:21;35.30;34.20
68681;DHT22;55836;49.858;6.756;2022-07-18T14:59:46;35.00;33.60
68681;DHT22;55836;49.858;6.756;2022-07-18T15:02:12;34.60;33.60
68681;DHT22;55836;49.858;6.756;2022-07-18T15:04:39;34.30;34.40
68681;DHT22;55836;49.858;6.756;2022-07-18T15:07:06;34.10;34.00
68681;DHT22;55836;49.858;6.756;2022-07-18T15:09:32;34.10;34.30
68681;DHT22;55836;49.858;6.756;2022-07-18T15:11:57;34.20;35.20
68681;DHT22;55836;49.858;6.756;2022-07-18T15:14:23;34.40;34.20
68681;DHT22;55836;49.858;6.756;2022-07-18T15:16:49;34.40;33.90
68681;DHT22;55836;49.858;6.756;2022-07-18T15:19:14;34.40;34.80
68681;DHT22;55836;49.858;6.756;2022-07-18T15:21:40;34.60;34.40
68681;DHT22;55836;49.858;6.756;2022-07-18T15:24:06;34.90;34.40
68681;DHT22;55836;49.858;6.756;2022-07-18T15:26:33;35.10;34.70
68681;DHT22;55836;49.858;6.756;2022-07-18T15:28:58;35.20;34.80
68681;DHT22;55836;49.858;6.756;2022-07-18T15:31:24;34.90;33.60
68681;DHT22;55836;49.858;6.756;2022-07-18T15:33:50;34.60;34.00
68681;DHT22;55836;49.858;6.756;2022-07-18T15:36:16;34.60;34.30
68681;DHT22;55836;49.858;6.756;2022-07-18T15:38:41;34.80;34.70
68681;DHT22;55836;49.858;6.756;2022-07-18T15:41:08;35.10;34.70
68681;DHT22;55836;49.858;6.756;2022-07-18T15:43:35;35.00;34.00
68681;DHT22;55836;49.858;6.756;2022-07-18T15:46:01;35.00;34.10
68681;DHT22;55836;49.858;6.756;2022-07-18T15:48:27;35.10;34.60
68681;DHT22;55836;49.858;6.756;2022-07-18T15:50:53;35.10;34.60
68681;DHT22;55836;49.858;6.756;2022-07-18T15:53:19;35.10;35.00
68681;DHT22;55836;49.858;6.756;2022-07-18T15:55:44;34.90;35.10
68681;DHT22;55836;49.858;6.756;2022-07-18T15:58:10;34.80;35.80
68681;DHT22;55836;49.858;6.756;2022-07-18T16:00:36;34.80;35.00
68681;DHT22;55836;49.858;6.756;2022-07-18T16:03:02;34.90;36.00
68681;DHT22;55836;49.858;6.756;2022-07-18T16:05:27;35.10;34.10
68681;DHT22;55836;49.858;6.756;2022-07-18T16:07:53;35.00;33.80
68681;DHT22;55836;49.858;6.756;2022-07-18T16:10:19;34.80;35.10
68681;DHT22;55836;49.858;6.756;2022-07-18T16:12:44;34.80;36.60
68681;DHT22;55836;49.858;6.756;2022-07-18T16:15:11;35.10;34.90
68681;DHT22;55836;49.858;6.756;2022-07-18T16:17:37;34.90;35.60